Bowerman Airport Hoquiam US
ICAO: KHQM
IATA: HQM
Category: Medium
Scheduled Services: No

Elevation: 18 ft
TransAlt. 18000 ft.

Airport Communications:
ASOS:135.775
SEATTLE CNTR:128.3
SEATTLE RDO:122.2
CTAF/UNICOM:122.7

KHQM Zoom In..

If Map Doesn't Load, Click Here

Runways:

(A) RW 06 length 5000 ft width 150 ft
---- / hdg 60

(B) RW 24 length 5000 ft width 150 ft
ILS 108.70 / hdg 240

Location; KHQM
Day. 26 / Time. 09.53 Zulu
* Altimeter: 30.22
* Temperature: 12° c. 53.6°f.
* Wind from: 040° Speed 03 kn.
Dewpoint: 10° c.
Visibility: 9 Statute Miles.
Clouds: Clear (automated report).

KHQM 260953Z AUTO 04003KT 9SM CLR 12/10 A3022 RMK AO2 SLP237 T01220100


Wind From 040°
Speed 03 kn.

 
 
jpsmedia.com for Web Design worldairports.se 2018   terms of use